Time;durP1;ratioP1;P1;durP2;ratioP2;P2;SDS_P1;SDS_P2;PMS_P1;PMS_P2;Temp;Humidity;BMP_temperature;BMP_pressure;BME280_temperature;BME280_humidity;BME280_pressure;Samples;Min_cycle;Max_cycle;Signal;HPM_P1;HPM_P2
2021/11/07 00:01:48;;;;;;;11.93;11.07;;;23.10;99.90;;;;;;5015696;28;20028;-82
2021/11/07 00:10:04;;;;;;;9.93;9.32;;;23.80;99.90;;;;;;5015615;28;20344;-82
2021/11/07 00:12:38;;;;;;;10.43;9.63;;;23.70;99.90;;;;;;5015804;28;20040;-82
2021/11/07 00:15:06;;;;;;;11.07;10.02;;;23.70;99.90;;;;;;5014758;28;20022;-82
2021/11/07 00:17:35;;;;;;;10.50;9.55;;;23.70;99.90;;;;;;5013755;28;20471;-82
2021/11/07 00:20:15;;;;;;;10.82;9.65;;;23.70;99.90;;;;;;5015247;28;20018;-82
2021/11/07 00:25:21;;;;;;;9.93;9.20;;;24.00;99.90;;;;;;5015812;28;20072;-80
2021/11/07 00:30:34;;;;;;;9.80;8.98;;;23.90;99.90;;;;;;5018357;28;20022;-81
2021/11/07 00:33:15;;;;;;;7.70;7.20;;;24.10;99.90;;;;;;5015891;28;20049;-81
2021/11/07 00:38:18;;;;;;;9.48;8.70;;;24.20;99.90;;;;;;5015100;28;20109;-81
2021/11/07 00:43:30;;;;;;;9.52;8.88;;;24.40;99.90;;;;;;5015900;28;20441;-82
2021/11/07 00:48:29;;;;;;;9.70;8.88;;;24.80;99.90;;;;;;5015951;28;20155;-81
2021/11/07 00:51:23;;;;;;;9.27;8.45;;;24.90;99.90;;;;;;5014390;28;20076;-81
2021/11/07 00:54:01;;;;;;;8.60;7.90;;;25.10;99.90;;;;;;5013135;28;20025;-82
2021/11/07 00:59:06;;;;;;;7.30;6.80;;;25.00;99.90;;;;;;5015020;28;20470;-82
2021/11/07 01:01:39;;;;;;;6.78;6.30;;;24.80;99.90;;;;;;5013335;28;20080;-82
2021/11/07 01:04:11;;;;;;;6.35;5.85;;;24.80;99.90;;;;;;5013929;28;20026;-83
2021/11/07 01:06:40;;;;;;;5.47;5.00;;;24.70;99.90;;;;;;5013684;28;20061;-83
2021/11/07 01:09:08;;;;;;;5.70;5.30;;;24.80;99.90;;;;;;5014564;28;20440;-82
2021/11/07 01:11:36;;;;;;;6.05;4.47;;;25.10;99.90;;;;;;5014373;28;20076;-82
2021/11/07 01:14:05;;;;;;;5.30;4.80;;;25.10;99.90;;;;;;5014437;28;20391;-83
2021/11/07 01:16:34;;;;;;;6.40;5.28;;;25.30;99.90;;;;;;5014600;28;20025;-83
2021/11/07 01:19:03;;;;;;;5.82;5.25;;;25.10;99.90;;;;;;5015636;28;20029;-83
2021/11/07 01:21:35;;;;;;;6.53;6.03;;;25.00;99.90;;;;;;5017806;28;20482;-83
2021/11/07 01:24:06;;;;;;;6.97;6.47;;;24.80;99.90;;;;;;5019005;28;20025;-84
2021/11/07 01:26:45;;;;;;;7.15;6.65;;;24.60;99.90;;;;;;5018220;28;20018;-84
2021/11/07 01:29:16;;;;;;;7.50;6.90;;;24.30;99.90;;;;;;5018427;28;20022;-83
2021/11/07 01:31:45;;;;;;;7.40;6.90;;;24.20;99.90;;;;;;5020555;28;20026;-85
2021/11/07 01:34:40;;;;;;;7.30;6.90;;;24.30;99.90;;;;;;5021618;28;20022;-84
2021/11/07 01:37:12;;;;;;;6.03;5.63;;;24.60;99.90;;;;;;5021440;28;20112;-83
2021/11/07 01:42:27;;;;;;;5.63;5.22;;;25.60;99.90;;;;;;5019643;28;20415;-84
2021/11/07 01:45:04;;;;;;;5.60;5.10;;;26.20;99.90;;;;;;5018001;28;20109;-84
2021/11/07 01:47:37;;;;;;;5.30;4.90;;;27.10;99.90;;;;;;5017442;28;20045;-84
2021/11/07 01:50:09;;;;;;;5.22;4.82;;;27.60;99.90;;;;;;5017703;28;20053;-84
2021/11/07 01:52:40;;;;;;;4.50;4.20;;;27.50;99.90;;;;;;5017634;28;20029;-83
2021/11/07 01:55:09;;;;;;;4.63;4.22;;;27.60;99.90;;;;;;5016374;28;20394;-84
2021/11/07 01:57:37;;;;;;;4.22;3.92;;;27.70;99.90;;;;;;5016136;28;20475;-84
2021/11/07 02:00:19;;;;;;;3.80;3.50;;;27.50;99.90;;;;;;5000433;28;20037;-84
2021/11/07 02:02:47;;;;;;;4.18;3.00;;;28.00;99.90;;;;;;5017367;28;20018;-82
2021/11/07 02:05:14;;;;;;;3.30;3.00;;;27.90;99.90;;;;;;5017000;28;20022;-82
2021/11/07 02:07:42;;;;;;;3.50;3.30;;;27.70;99.90;;;;;;5016257;28;20069;-83
2021/11/07 02:10:14;;;;;;;3.20;3.00;;;27.00;99.90;;;;;;5016822;28;20033;-85
2021/11/07 02:12:42;;;;;;;3.55;3.30;;;26.20;99.90;;;;;;5017011;28;20137;-84
2021/11/07 02:15:12;;;;;;;3.53;3.13;;;25.90;99.90;;;;;;5018051;28;20018;-85
2021/11/07 02:17:40;;;;;;;3.15;2.95;;;25.50;99.90;;;;;;5000341;28;20032;-84
2021/11/07 02:20:12;;;;;;;3.55;3.30;;;25.10;99.90;;;;;;5016730;28;20034;-83
2021/11/07 02:22:42;;;;;;;3.95;3.55;;;24.80;99.90;;;;;;5017194;28;20018;-83
2021/11/07 02:25:11;;;;;;;3.77;3.30;;;24.80;99.90;;;;;;5016224;28;20030;-83
2021/11/07 02:27:39;;;;;;;4.30;3.88;;;24.50;99.90;;;;;;4999814;28;20040;-84
2021/11/07 02:30:10;;;;;;;6.22;4.88;;;24.10;99.90;;;;;;5014383;28;20033;-81
2021/11/07 02:32:38;;;;;;;9.00;5.40;;;23.80;99.90;;;;;;5016109;28;20034;-82
2021/11/07 02:35:05;;;;;;;8.10;5.47;;;23.50;99.90;;;;;;5015288;28;20060;-82
2021/11/07 02:37:33;;;;;;;6.95;6.28;;;23.40;99.90;;;;;;5016910;28;20030;-84
2021/11/07 02:40:01;;;;;;;7.57;6.93;;;23.50;99.90;;;;;;5016189;28;20391;-85
2021/11/07 02:42:28;;;;;;;9.57;8.70;;;23.50;99.90;;;;;;5015322;28;20026;-83
2021/11/07 02:44:55;;;;;;;10.10;9.40;;;23.80;99.90;;;;;;5015424;28;20444;-83
2021/11/07 02:47:23;;;;;;;11.73;10.55;;;23.90;99.90;;;;;;5016318;28;20104;-82
2021/11/07 02:49:50;;;;;;;11.25;10.25;;;23.80;99.90;;;;;;5016287;28;20026;-83
2021/11/07 02:52:17;;;;;;;12.70;11.50;;;23.70;99.90;;;;;;5014949;28;20483;-82
2021/11/07 02:54:45;;;;;;;12.77;11.68;;;23.50;99.90;;;;;;5015009;28;20057;-82
2021/11/07 02:57:18;;;;;;;13.02;12.13;;;23.40;99.90;;;;;;5014992;28;20479;-83
2021/11/07 02:59:48;;;;;;;12.85;11.95;;;23.50;99.90;;;;;;5016307;28;20022;-82
2021/11/07 03:02:16;;;;;;;12.43;11.63;;;23.40;99.90;;;;;;5016126;28;20022;-84
2021/11/07 03:04:43;;;;;;;11.80;11.07;;;23.30;99.90;;;;;;5015393;28;20569;-80
2021/11/07 03:07:10;;;;;;;9.63;8.88;;;23.10;99.90;;;;;;5015880;28;20049;-82
2021/11/07 03:09:40;;;;;;;9.50;8.88;;;22.80;99.90;;;;;;5016531;28;20022;-82
2021/11/07 03:12:09;;;;;;;9.85;9.15;;;22.60;99.90;;;;;;5016170;28;20053;-85
2021/11/07 03:14:45;;;;;;;9.60;9.05;;;22.50;99.90;;;;;;5014971;28;20121;-85
2021/11/07 03:17:17;;;;;;;11.30;10.52;;;22.40;99.90;;;;;;5015116;28;20030;-84
2021/11/07 03:19:45;;;;;;;12.98;11.90;;;22.30;99.90;;;;;;5016083;28;20064;-79
2021/11/07 03:22:17;;;;;;;14.68;13.18;;;22.10;99.90;;;;;;5015632;28;20026;-80
2021/11/07 03:24:46;;;;;;;14.13;13.13;;;22.00;99.90;;;;;;5015698;28;20041;-81
2021/11/07 03:27:16;;;;;;;14.85;13.80;;;21.80;99.90;;;;;;5014780;28;20446;-79
2021/11/07 03:29:51;;;;;;;14.30;13.30;;;21.70;99.90;;;;;;5014854;28;20026;-82
2021/11/07 03:32:20;;;;;;;13.85;12.70;;;21.70;99.90;;;;;;5015830;28;20072;-80
2021/11/07 03:34:54;;;;;;;14.68;13.52;;;21.50;99.90;;;;;;5014334;28;20130;-80
2021/11/07 03:37:25;;;;;;;14.18;13.18;;;21.50;99.90;;;;;;5014603;28;20037;-81
2021/11/07 03:39:58;;;;;;;14.77;13.50;;;21.30;99.90;;;;;;5014517;28;20026;-82
2021/11/07 03:42:27;;;;;;;14.85;13.75;;;21.20;99.90;;;;;;4997535;28;20116;-81
2021/11/07 03:44:55;;;;;;;15.57;14.30;;;21.20;99.90;;;;;;5014345;28;20026;-81
2021/11/07 03:47:23;;;;;;;15.15;14.00;;;21.10;99.90;;;;;;5013935;28;20032;-79
2021/11/07 03:49:50;;;;;;;14.50;13.60;;;21.10;99.90;;;;;;5015308;28;20026;-78
2021/11/07 03:52:18;;;;;;;14.20;13.40;;;21.00;99.90;;;;;;5015071;28;20026;-78
2021/11/07 03:54:46;;;;;;;15.48;14.48;;;21.00;99.90;;;;;;5014193;28;20033;-78
2021/11/07 03:57:13;;;;;;;15.45;14.60;;;20.90;99.90;;;;;;5015133;28;20026;-78
2021/11/07 03:59:43;;;;;;;16.10;15.10;;;20.80;99.90;;;;;;5014972;28;20028;-77
2021/11/07 04:02:13;;;;;;;15.83;14.87;;;20.70;99.90;;;;;;5015139;28;20112;-78
2021/11/07 04:04:40;;;;;;;16.70;15.60;;;20.70;99.90;;;;;;5014592;28;20029;-78
2021/11/07 04:07:09;;;;;;;15.98;15.02;;;20.70;99.90;;;;;;5014684;28;20058;-79
2021/11/07 04:09:36;;;;;;;17.15;15.95;;;20.70;99.90;;;;;;5013261;28;20053;-79
2021/11/07 04:12:04;;;;;;;15.85;15.05;;;20.60;99.90;;;;;;5013826;28;20022;-79
2021/11/07 04:14:35;;;;;;;16.48;15.65;;;20.60;99.90;;;;;;5014394;28;20060;-79
2021/11/07 04:17:03;;;;;;;;;;;20.70;99.90;;;;;;5013977;28;20028;-80
2021/11/07 04:19:30;;;;;;;17.85;16.75;;;20.80;99.90;;;;;;5013307;28;20318;-80
2021/11/07 04:22:02;;;;;;;16.38;15.23;;;20.80;99.90;;;;;;5014583;28;20026;-79
2021/11/07 04:24:30;;;;;;;17.75;16.58;;;20.80;99.90;;;;;;5012530;28;20026;-77
2021/11/07 04:26:58;;;;;;;17.48;16.35;;;20.80;99.90;;;;;;5013440;28;20141;-80
2021/11/07 04:29:28;;;;;;;16.90;16.00;;;20.70;99.90;;;;;;5014313;28;20076;-79
2021/11/07 04:31:56;;;;;;;16.45;15.55;;;20.70;99.90;;;;;;5014391;28;20030;-78
2021/11/07 04:34:24;;;;;;;15.82;14.88;;;20.70;99.90;;;;;;5012697;28;20053;-78
2021/11/07 04:36:53;;;;;;;15.60;14.80;;;20.70;99.90;;;;;;5014135;28;20479;-76
2021/11/07 04:39:23;;;;;;;14.85;14.15;;;20.80;99.90;;;;;;5012831;28;20022;-77
2021/11/07 04:41:51;;;;;;;15.13;14.27;;;20.80;99.90;;;;;;5014417;28;20475;-77
2021/11/07 04:44:18;;;;;;;15.25;14.32;;;20.90;99.90;;;;;;5013328;28;20030;-77
2021/11/07 04:46:46;;;;;;;14.32;13.43;;;21.10;99.90;;;;;;5014060;28;20149;-79
2021/11/07 04:49:13;;;;;;;14.20;13.50;;;21.10;99.90;;;;;;5012571;28;20018;-78
2021/11/07 04:51:41;;;;;;;13.63;12.88;;;21.20;99.90;;;;;;5013253;28;20022;-79
2021/11/07 04:54:09;;;;;;;13.48;12.68;;;21.20;99.90;;;;;;5013152;28;20451;-78
2021/11/07 04:56:36;;;;;;;13.00;12.15;;;21.30;99.90;;;;;;5012450;28;20537;-78
2021/11/07 04:59:04;;;;;;;12.00;11.50;;;21.20;99.90;;;;;;5014074;28;20104;-79
2021/11/07 05:01:31;;;;;;;13.68;12.98;;;21.10;99.90;;;;;;5012394;28;20502;-79
2021/11/07 05:03:59;;;;;;;12.70;12.00;;;21.20;99.90;;;;;;5012462;28;20053;-80
2021/11/07 05:06:27;;;;;;;12.02;11.52;;;21.10;99.90;;;;;;5013666;28;20042;-77
2021/11/07 05:08:55;;;;;;;12.38;11.68;;;21.00;99.90;;;;;;5013193;28;20029;-79
2021/11/07 05:11:22;;;;;;;10.88;10.30;;;20.90;99.90;;;;;;5012333;28;20029;-81
2021/11/07 05:13:50;;;;;;;10.85;10.43;;;20.80;99.90;;;;;;5013078;28;20033;-79
2021/11/07 05:16:17;;;;;;;11.20;10.70;;;20.70;99.90;;;;;;5014126;28;20030;-80
2021/11/07 05:18:44;;;;;;;11.38;10.82;;;20.80;99.90;;;;;;5012932;28;20435;-80
2021/11/07 05:21:12;;;;;;;11.82;11.23;;;20.80;99.90;;;;;;5013139;28;20491;-81
2021/11/07 05:23:40;;;;;;;11.98;11.20;;;20.80;99.90;;;;;;5013131;28;20026;-77
2021/11/07 05:26:07;;;;;;;11.05;10.55;;;20.80;99.90;;;;;;5013913;28;20022;-78
2021/11/07 05:28:35;;;;;;;11.38;10.88;;;20.70;99.90;;;;;;5014100;28;20085;-76
2021/11/07 05:31:03;;;;;;;11.95;11.27;;;20.70;99.90;;;;;;5013901;28;20021;-77
2021/11/07 05:33:31;;;;;;;10.85;10.35;;;20.70;99.90;;;;;;5012456;28;20030;-76
2021/11/07 05:35:59;;;;;;;11.00;10.50;;;20.70;99.90;;;;;;5013922;28;20056;-76
2021/11/07 05:38:27;;;;;;;10.20;9.80;;;20.70;99.90;;;;;;5013625;28;20018;-78
2021/11/07 05:40:54;;;;;;;9.95;9.52;;;20.70;99.90;;;;;;5012615;28;20053;-77
2021/11/07 05:43:23;;;;;;;9.80;9.40;;;20.80;99.90;;;;;;5014031;28;20493;-77
2021/11/07 05:45:52;;;;;;;10.00;9.60;;;20.70;99.90;;;;;;5014061;28;20072;-78
2021/11/07 05:48:20;;;;;;;10.05;9.65;;;20.70;99.90;;;;;;5012937;28;20022;-78
2021/11/07 05:50:48;;;;;;;10.60;10.10;;;20.70;99.90;;;;;;5014615;28;20386;-78
2021/11/07 05:53:15;;;;;;;10.30;9.80;;;20.70;99.90;;;;;;5014309;28;20026;-76
2021/11/07 05:55:43;;;;;;;10.48;10.07;;;20.70;99.90;;;;;;5014143;28;20057;-78
2021/11/07 05:58:10;;;;;;;10.60;10.10;;;20.80;99.90;;;;;;5012925;28;20026;-78
2021/11/07 06:00:38;;;;;;;12.05;11.45;;;20.80;99.90;;;;;;5014551;28;20021;-77
2021/11/07 06:03:07;;;;;;;11.65;10.93;;;20.90;99.90;;;;;;5013967;28;20097;-78
2021/11/07 06:05:36;;;;;;;12.25;11.55;;;20.90;99.90;;;;;;5017936;28;20038;-78
2021/11/07 06:08:04;;;;;;;10.90;10.40;;;20.90;99.90;;;;;;5017884;28;20092;-77
2021/11/07 06:10:32;;;;;;;10.13;9.70;;;20.80;99.90;;;;;;5016096;28;20434;-77
2021/11/07 06:12:59;;;;;;;9.93;9.52;;;20.80;99.90;;;;;;5016003;28;20026;-79
2021/11/07 06:15:26;;;;;;;10.90;10.18;;;20.70;99.90;;;;;;5017248;28;20030;-79
2021/11/07 06:17:56;;;;;;;11.32;10.82;;;20.70;99.90;;;;;;5017076;28;20026;-78
2021/11/07 06:20:24;;;;;;;10.57;10.07;;;20.70;99.90;;;;;;5016086;28;20025;-78
2021/11/07 06:22:51;;;;;;;10.70;10.20;;;20.60;99.90;;;;;;5017629;28;20430;-78
2021/11/07 06:25:19;;;;;;;10.40;9.90;;;20.70;99.90;;;;;;5017275;28;20030;-78
2021/11/07 06:27:46;;;;;;;10.63;9.88;;;20.70;99.90;;;;;;5016710;28;20432;-78
2021/11/07 06:30:14;;;;;;;10.95;10.40;;;20.70;99.90;;;;;;5015632;28;20093;-78
2021/11/07 06:32:41;;;;;;;11.02;10.52;;;20.60;99.90;;;;;;5017216;28;20045;-79
2021/11/07 06:35:11;;;;;;;10.60;10.10;;;20.70;99.90;;;;;;5017006;28;20144;-78
2021/11/07 06:37:40;;;;;;;11.10;10.60;;;20.70;99.90;;;;;;5017041;28;20029;-80
2021/11/07 06:40:09;;;;;;;12.20;11.50;;;20.70;99.90;;;;;;5016646;28;20040;-81
2021/11/07 06:42:36;;;;;;;11.68;10.93;;;20.70;99.90;;;;;;5015762;28;20102;-79
2021/11/07 06:45:04;;;;;;;12.10;11.60;;;20.70;99.90;;;;;;5017034;28;20413;-79
2021/11/07 06:47:32;;;;;;;12.27;11.57;;;20.70;99.90;;;;;;5017115;28;20444;-78
2021/11/07 06:49:59;;;;;;;12.10;11.50;;;20.70;99.90;;;;;;5016813;28;20479;-78
2021/11/07 06:52:26;;;;;;;11.40;11.00;;;20.60;99.90;;;;;;5015253;28;20491;-79
2021/11/07 06:54:54;;;;;;;12.07;11.45;;;20.50;99.90;;;;;;5016155;28;20038;-80
2021/11/07 06:57:22;;;;;;;13.07;12.30;;;20.60;99.90;;;;;;5015373;28;20487;-79
2021/11/07 06:59:49;;;;;;;13.10;12.50;;;20.50;99.90;;;;;;4999233;28;20081;-79
2021/11/07 07:02:17;;;;;;;12.13;11.52;;;20.50;99.90;;;;;;5016179;28;20434;-79
2021/11/07 07:04:44;;;;;;;11.95;11.27;;;20.50;99.90;;;;;;5015954;28;20069;-78
2021/11/07 07:07:13;;;;;;;12.55;11.90;;;20.50;99.90;;;;;;5016460;28;20041;-78
2021/11/07 07:09:45;;;;;;;12.70;12.00;;;20.40;99.90;;;;;;5017665;28;20022;-77
2021/11/07 07:12:59;;;;;;;12.80;12.30;;;20.40;99.90;;;;;;5018938;28;20030;-80
2021/11/07 07:15:19;;;;;;;13.15;12.45;;;20.40;99.90;;;;;;5011118;28;20483;-79
2021/11/07 07:20:42;;;;;;;13.00;12.40;;;20.10;99.90;;;;;;5017196;28;20026;-79
2021/11/07 07:25:58;;;;;;;14.70;14.00;;;20.10;99.90;;;;;;5017325;28;20034;-78
2021/11/07 07:28:42;;;;;;;15.02;14.27;;;20.00;99.90;;;;;;5017795;28;20038;-76
2021/11/07 07:36:21;;;;;;;14.65;13.95;;;19.80;99.90;;;;;;5015582;28;20478;-79
2021/11/07 07:38:48;;;;;;;15.15;14.45;;;19.90;99.90;;;;;;5014368;28;20029;-78
2021/11/07 07:41:15;;;;;;;15.80;14.90;;;19.90;99.90;;;;;;5015715;28;20018;-78
2021/11/07 07:43:43;;;;;;;16.25;15.45;;;19.90;99.90;;;;;;5015612;28;20022;-78
2021/11/07 07:46:12;;;;;;;16.10;15.20;;;19.90;99.90;;;;;;5015866;28;20061;-80
2021/11/07 07:48:45;;;;;;;16.92;15.85;;;19.90;99.90;;;;;;5016636;28;20022;-79
2021/11/07 07:51:15;;;;;;;15.45;14.60;;;19.90;99.90;;;;;;5016542;28;20120;-79
2021/11/07 07:53:44;;;;;;;15.43;14.63;;;20.00;99.90;;;;;;5016719;28;20038;-79
2021/11/07 07:56:13;;;;;;;15.65;14.85;;;20.00;99.90;;;;;;5017295;28;20098;-80
2021/11/07 07:58:41;;;;;;;16.30;15.38;;;20.00;99.90;;;;;;5016958;28;20026;-79
2021/11/07 08:01:09;;;;;;;15.43;14.65;;;20.10;99.90;;;;;;5017458;28;20672;-79
2021/11/07 08:03:37;;;;;;;14.90;14.10;;;20.10;99.90;;;;;;5015604;28;20372;-79
2021/11/07 08:06:05;;;;;;;15.65;14.68;;;20.10;99.90;;;;;;5015610;28;20056;-79
2021/11/07 08:08:33;;;;;;;15.68;14.80;;;20.10;99.90;;;;;;5015388;28;20532;-79
2021/11/07 08:11:01;;;;;;;14.80;14.02;;;20.00;99.90;;;;;;5016849;28;20065;-79
2021/11/07 08:13:29;;;;;;;15.05;14.25;;;20.00;99.90;;;;;;5016446;28;20033;-79
2021/11/07 08:15:56;;;;;;;15.55;14.88;;;20.00;99.90;;;;;;5018095;28;20506;-79
2021/11/07 08:18:24;;;;;;;15.57;14.77;;;20.30;99.90;;;;;;5017315;28;20458;-79
2021/11/07 08:20:51;;;;;;;15.40;14.60;;;20.10;99.90;;;;;;5017642;28;20471;-79
2021/11/07 08:23:22;;;;;;;16.63;15.63;;;20.00;99.90;;;;;;5015087;28;20479;-79
2021/11/07 08:25:50;;;;;;;16.80;15.90;;;20.00;99.90;;;;;;5015395;28;20026;-79
2021/11/07 08:28:20;;;;;;;17.70;16.70;;;20.00;99.90;;;;;;5013924;28;20026;-80
2021/11/07 08:30:52;;;;;;;17.90;16.90;;;20.00;99.90;;;;;;5018351;28;20033;-79
2021/11/07 08:33:20;;;;;;;18.63;17.48;;;20.00;99.90;;;;;;5017528;28;20059;-79
2021/11/07 08:35:48;;;;;;;17.20;16.15;;;20.00;99.90;;;;;;5016355;28;20022;-79
2021/11/07 08:38:23;;;;;;;16.30;15.40;;;20.00;99.90;;;;;;5016886;28;20022;-79
2021/11/07 08:40:54;;;;;;;16.00;15.18;;;20.00;99.90;;;;;;5020007;28;20091;-79
2021/11/07 09:05:34;;;;;;;16.98;16.05;;;19.90;99.90;;;;;;5020377;28;20053;-79
2021/11/07 09:10:35;;;;;;;15.55;14.75;;;19.90;99.90;;;;;;5020172;28;20010;-80
2021/11/07 09:13:09;;;;;;;15.38;14.68;;;19.90;99.90;;;;;;5015695;28;20029;-79
2021/11/07 09:15:43;;;;;;;15.93;15.02;;;19.80;99.90;;;;;;5018709;28;20025;-81
2021/11/07 09:18:10;;;;;;;16.45;15.38;;;19.90;99.90;;;;;;5025234;28;20113;-80
2021/11/07 09:23:14;;;;;;;16.00;15.00;;;19.90;99.90;;;;;;5025040;28;20058;-80
2021/11/07 09:25:46;;;;;;;16.58;15.65;;;19.90;99.90;;;;;;5016686;28;20080;-80
2021/11/07 09:28:20;;;;;;;16.27;15.45;;;19.90;99.90;;;;;;5014695;28;20018;-78
2021/11/07 09:31:01;;;;;;;16.67;15.80;;;19.90;99.90;;;;;;5021848;28;20026;-80
2021/11/07 09:33:50;;;;;;;16.40;15.60;;;19.80;99.90;;;;;;5018713;28;20029;-80
2021/11/07 09:36:24;;;;;;;16.83;15.73;;;19.80;99.90;;;;;;5014584;28;20034;-79
2021/11/07 09:39:07;;;;;;;16.95;16.05;;;19.80;99.90;;;;;;5013754;28;20022;-79
2021/11/07 09:41:49;;;;;;;17.23;16.40;;;19.70;99.90;;;;;;5018128;28;20032;-78
2021/11/07 09:44:26;;;;;;;18.15;16.90;;;19.70;99.90;;;;;;5017840;28;20029;-78
2021/11/07 09:47:02;;;;;;;18.35;17.27;;;19.60;99.90;;;;;;5017835;28;20019;-77
2021/11/07 09:49:37;;;;;;;17.63;16.58;;;19.60;99.90;;;;;;5018601;28;20076;-78
2021/11/07 09:52:14;;;;;;;18.15;17.15;;;19.50;99.90;;;;;;5018558;28;20065;-77
2021/11/07 09:54:44;;;;;;;17.73;16.83;;;19.30;99.90;;;;;;5016960;28;20030;-79
2021/11/07 09:57:16;;;;;;;18.13;16.98;;;19.20;99.90;;;;;;5017655;28;20061;-78
2021/11/07 09:59:44;;;;;;;18.20;17.30;;;19.10;99.90;;;;;;5017425;28;20109;-78
2021/11/07 10:02:12;;;;;;;18.65;17.65;;;19.10;99.90;;;;;;5016274;28;20018;-79
2021/11/07 10:04:41;;;;;;;19.02;18.02;;;19.10;99.90;;;;;;5016325;28;20040;-78
2021/11/07 10:07:23;;;;;;;19.20;18.27;;;19.10;99.90;;;;;;5017169;28;20532;-77
2021/11/07 10:10:00;;;;;;;19.50;18.50;;;19.10;99.90;;;;;;5016161;28;20491;-78
2021/11/07 10:12:42;;;;;;;19.67;18.58;;;19.10;99.90;;;;;;5017510;28;20037;-77
2021/11/07 10:15:24;;;;;;;21.13;19.75;;;19.10;99.90;;;;;;5016313;28;20061;-78
2021/11/07 10:18:08;;;;;;;21.38;19.80;;;19.10;99.90;;;;;;5017881;28;20022;-78
2021/11/07 10:20:42;;;;;;;20.90;19.45;;;19.00;99.90;;;;;;5018083;28;20030;-78
2021/11/07 10:23:13;;;;;;;20.38;19.27;;;19.00;99.90;;;;;;5017604;28;20018;-79
2021/11/07 10:28:57;;;;;;;21.33;19.65;;;19.00;99.90;;;;;;5008571;28;20058;-78
2021/11/07 10:31:39;;;;;;;21.17;19.33;;;19.00;99.90;;;;;;5016012;28;20360;-78
2021/11/07 10:47:29;;;;;;;22.45;20.40;;;18.80;99.90;;;;;;5016657;28;19912;-77
2021/11/07 10:52:50;;;;;;;24.00;21.35;;;18.80;99.90;;;;;;5016667;28;20084;-77
2021/11/07 10:55:22;;;;;;;23.90;21.30;;;18.60;99.90;;;;;;5018204;28;20034;-76
2021/11/07 10:57:57;;;;;;;23.63;20.90;;;18.70;99.90;;;;;;5015100;28;20117;-77
2021/11/07 11:00:52;;;;;;;24.95;20.40;;;18.70;99.90;;;;;;5016154;28;20022;-77
2021/11/07 11:03:24;;;;;;;22.05;20.05;;;18.70;99.90;;;;;;5015216;28;20558;-78
2021/11/07 11:06:06;;;;;;;22.23;20.20;;;18.70;99.90;;;;;;5015950;28;20108;-77
2021/11/07 11:08:51;;;;;;;22.52;20.65;;;18.70;99.90;;;;;;5015073;28;20064;-78
2021/11/07 11:11:40;;;;;;;21.75;19.98;;;18.70;99.90;;;;;;5016106;28;20029;-77
2021/11/07 11:14:23;;;;;;;21.50;19.90;;;18.70;99.90;;;;;;5016186;28;20029;-78
2021/11/07 11:25:42;;;;;;;22.02;20.05;;;18.60;99.90;;;;;;5016048;28;20022;-78
2021/11/07 11:33:38;;;;;;;21.25;19.40;;;18.60;99.90;;;;;;5015752;28;20026;-78
2021/11/07 11:38:45;;;;;;;21.85;19.77;;;18.60;99.90;;;;;;5015640;28;20018;-77
2021/11/07 11:41:20;;;;;;;22.13;19.67;;;18.50;99.90;;;;;;5013980;28;20455;-78
2021/11/07 11:43:51;;;;;;;21.77;19.95;;;18.50;99.90;;;;;;5014133;28;20021;-78
2021/11/07 11:47:08;;;;;;;21.30;19.33;;;18.60;99.90;;;;;;5015244;28;20434;-78
2021/11/07 11:49:52;;;;;;;24.60;19.25;;;18.60;99.90;;;;;;5015066;28;20108;-78
2021/11/07 12:00:43;;;;;;;21.70;19.70;;;18.70;99.90;;;;;;5014815;28;20018;-77
2021/11/07 12:07:02;;;;;;;21.98;19.15;;;18.60;99.90;;;;;;5015093;28;20092;-78
2021/11/07 12:09:34;;;;;;;26.65;23.60;;;18.60;99.90;;;;;;5012752;28;20030;-77
2021/11/07 12:15:06;;;;;;;21.35;19.85;;;18.60;99.90;;;;;;5015032;28;20076;-78
2021/11/07 12:17:37;;;;;;;21.23;19.48;;;18.60;99.90;;;;;;5016146;28;20018;-78
2021/11/07 12:20:27;;;;;;;;;;;18.60;99.90;;;;;;5016673;28;20017;-78
2021/11/07 12:23:17;;;;;;;21.33;19.50;;;18.60;99.90;;;;;;5005411;28;19911;-77
2021/11/07 12:25:48;;;;;;;;;;;18.70;99.90;;;;;;5013500;28;20029;-78
2021/11/07 12:28:17;;;;;;;20.85;19.20;;;18.70;99.90;;;;;;5012917;28;19941;-77
2021/11/07 12:30:45;;;;;;;22.92;21.15;;;18.70;99.90;;;;;;5013213;28;20030;-78
2021/11/07 12:33:23;;;;;;;21.42;19.90;;;18.70;99.90;;;;;;5012696;28;20022;-77
2021/11/07 12:36:15;;;;;;;21.75;20.20;;;18.70;99.90;;;;;;5014147;28;20109;-77
2021/11/07 12:41:29;;;;;;;21.77;20.08;;;18.60;99.90;;;;;;5014264;28;20099;-76
2021/11/07 12:44:04;;;;;;;21.20;19.70;;;18.60;99.90;;;;;;5014539;28;20018;-76
2021/11/07 12:46:57;;;;;;;22.17;20.60;;;18.60;99.90;;;;;;5013116;28;20064;-76
2021/11/07 12:49:31;;;;;;;22.00;20.25;;;18.50;99.90;;;;;;5013063;28;20037;-76
2021/11/07 12:52:16;;;;;;;21.80;20.40;;;18.40;99.90;;;;;;5013655;28;20547;-76
2021/11/07 12:54:45;;;;;;;21.40;20.10;;;18.40;99.90;;;;;;5012426;28;20025;-76
2021/11/07 12:57:16;;;;;;;22.38;20.75;;;18.40;99.90;;;;;;5012264;28;20471;-76
2021/11/07 12:59:59;;;;;;;22.25;20.77;;;18.40;99.90;;;;;;5014100;28;20022;-75
2021/11/07 13:02:30;;;;;;;21.95;20.58;;;18.40;99.90;;;;;;5012683;28;20379;-75
2021/11/07 13:04:59;;;;;;;22.10;20.42;;;18.40;99.90;;;;;;5013679;28;20183;-76
2021/11/07 13:07:42;;;;;;;22.13;20.65;;;18.40;99.90;;;;;;5012749;28;20113;-76
2021/11/07 13:10:20;;;;;;;21.65;20.00;;;18.40;99.90;;;;;;5013677;28;20025;-76
2021/11/07 13:13:01;;;;;;;21.60;20.33;;;18.40;99.90;;;;;;5013628;28;20022;-76
2021/11/07 13:18:30;;;;;;;22.33;20.98;;;18.40;99.90;;;;;;5016727;28;20022;-76
2021/11/07 13:24:32;;;;;;;20.80;19.70;;;18.40;99.90;;;;;;5017840;28;20471;-76
2021/11/07 13:30:05;;;;;;;22.35;20.85;;;18.30;99.90;;;;;;5017294;28;20018;-77
2021/11/07 13:32:37;;;;;;;23.52;21.80;;;18.30;99.90;;;;;;5016907;28;20105;-76
2021/11/07 13:35:15;;;;;;;22.58;21.27;;;18.30;99.90;;;;;;5017096;28;20021;-77
2021/11/07 13:37:54;;;;;;;24.52;23.08;;;18.30;99.90;;;;;;5017470;28;20068;-77
2021/11/07 13:40:32;;;;;;;24.75;23.23;;;18.30;99.90;;;;;;5015971;28;20060;-77
2021/11/07 13:43:29;;;;;;;25.52;23.92;;;18.30;99.90;;;;;;5015934;28;20018;-76
2021/11/07 13:45:58;;;;;;;26.40;24.75;;;18.30;99.90;;;;;;5015915;28;20029;-76
2021/11/07 13:48:31;;;;;;;25.35;23.65;;;18.30;99.90;;;;;;5017450;28;20096;-76
2021/11/07 13:51:01;;;;;;;25.10;23.52;;;18.30;99.90;;;;;;5017142;28;20037;-76
2021/11/07 13:53:30;;;;;;;25.80;24.10;;;18.30;99.90;;;;;;5017027;28;20104;-77
2021/11/07 13:56:00;;;;;;;26.85;25.05;;;18.30;99.90;;;;;;5016521;28;20046;-77
2021/11/07 13:58:30;;;;;;;27.05;25.27;;;18.30;99.90;;;;;;5016971;28;20053;-77
2021/11/07 14:01:04;;;;;;;28.30;26.00;;;18.30;99.90;;;;;;5016777;28;20025;-76
2021/11/07 14:03:31;;;;;;;27.50;25.38;;;18.40;99.90;;;;;;5017042;28;20109;-77
2021/11/07 14:08:43;;;;;;;26.67;24.90;;;18.30;99.90;;;;;;5016933;28;20523;-76
2021/11/07 14:11:12;;;;;;;27.35;25.25;;;18.30;99.90;;;;;;5016984;28;20025;-77
2021/11/07 14:13:47;;;;;;;27.60;25.63;;;18.30;99.90;;;;;;5016984;28;20032;-77
2021/11/07 14:16:16;;;;;;;25.75;24.02;;;18.30;99.90;;;;;;5016664;28;20434;-76
2021/11/07 14:18:47;;;;;;;25.20;23.60;;;18.20;99.90;;;;;;5016640;28;20146;-77
2021/11/07 14:21:17;;;;;;;26.17;24.27;;;18.20;99.90;;;;;;5015385;28;20550;-77
2021/11/07 14:23:57;;;;;;;26.85;25.15;;;18.20;99.90;;;;;;5016482;28;20088;-77
2021/11/07 14:31:54;;;;;;;26.58;24.67;;;18.30;99.90;;;;;;5016327;28;20030;-77
2021/11/07 14:34:30;;;;;;;25.88;24.05;;;18.30;99.90;;;;;;5016432;28;20030;-77
2021/11/07 14:37:08;;;;;;;26.48;24.70;;;18.20;99.90;;;;;;5016273;28;20108;-77
2021/11/07 14:42:28;;;;;;;27.42;25.63;;;18.20;99.90;;;;;;5016372;28;20034;-76
2021/11/07 14:53:33;;;;;;;28.77;26.98;;;18.20;99.90;;;;;;5016030;28;20089;-77
2021/11/07 14:59:27;;;;;;;28.35;26.35;;;18.20;99.90;;;;;;5016010;28;20058;-77
2021/11/07 15:01:59;;;;;;;28.40;26.42;;;18.10;99.90;;;;;;5013555;28;20475;-77
2021/11/07 15:04:57;;;;;;;27.95;25.38;;;18.20;99.90;;;;;;5014258;28;20022;-77
2021/11/07 15:07:50;;;;;;;28.33;26.52;;;18.20;99.90;;;;;;5015945;28;20018;-77
2021/11/07 15:10:39;;;;;;;27.40;25.55;;;18.20;99.90;;;;;;5015749;28;20022;-77
2021/11/07 15:13:30;;;;;;;28.77;26.73;;;18.10;99.90;;;;;;5014715;28;20018;-77
2021/11/07 15:18:59;;;;;;;27.67;25.65;;;18.10;99.90;;;;;;4999709;28;20463;-76
2021/11/07 15:21:36;;;;;;;26.15;24.25;;;18.10;99.90;;;;;;5015849;28;20018;-76
2021/11/07 15:24:24;;;;;;;25.65;24.02;;;18.10;99.90;;;;;;5015702;28;20026;-77
2021/11/07 15:27:02;;;;;;;27.48;25.55;;;18.10;99.90;;;;;;5014204;28;20155;-77